createdAt,value
2019-03-22T00:00:01.796Z,29.67
2019-03-22T00:02:30.101Z,31.03
2019-03-22T00:04:58.462Z,29.73
2019-03-22T00:07:31.100Z,27.90
2019-03-22T00:09:59.721Z,32.53
2019-03-22T00:12:28.038Z,29.97
2019-03-22T00:14:56.335Z,30.37
2019-03-22T00:17:24.719Z,30.30
2019-03-22T00:19:53.000Z,33.00
2019-03-22T00:22:21.253Z,32.97
2019-03-22T00:24:49.674Z,32.40
2019-03-22T00:27:18.627Z,31.40
2019-03-22T00:29:46.952Z,31.63
2019-03-22T00:32:15.338Z,35.23
2019-03-22T00:34:44.291Z,32.30
2019-03-22T00:37:12.606Z,32.97
2019-03-22T00:39:40.930Z,34.93
2019-03-22T00:42:09.189Z,35.10
2019-03-22T00:44:37.507Z,34.43
2019-03-22T00:47:05.754Z,32.63
2019-03-22T00:49:34.132Z,33.87
2019-03-22T00:52:02.522Z,36.73
2019-03-22T00:54:30.818Z,35.30
2019-03-22T00:56:59.119Z,34.67
2019-03-22T00:59:27.507Z,34.70
2019-03-22T01:01:55.832Z,39.20
2019-03-22T01:04:24.092Z,36.10
2019-03-22T01:06:52.533Z,34.90
2019-03-22T01:09:20.790Z,37.57
2019-03-22T01:11:49.061Z,36.33
2019-03-22T01:14:17.404Z,35.57
2019-03-22T01:16:45.674Z,36.87
2019-03-22T01:19:13.987Z,37.17
2019-03-22T01:21:42.257Z,38.80
2019-03-22T01:24:10.521Z,39.40
2019-03-22T01:26:38.974Z,40.37
2019-03-22T01:29:07.297Z,38.13
2019-03-22T01:31:35.586Z,38.43
2019-03-22T01:34:03.965Z,37.30
2019-03-22T01:36:32.345Z,42.67
2019-03-22T01:39:00.620Z,40.57
2019-03-22T01:41:28.910Z,41.10
2019-03-22T01:43:57.193Z,42.97
2019-03-22T01:46:25.503Z,43.03
2019-03-22T01:48:53.776Z,41.20
2019-03-22T01:51:22.743Z,43.33
2019-03-22T01:53:51.127Z,43.83
2019-03-22T01:56:20.045Z,40.87
2019-03-22T01:58:48.328Z,43.57
2019-03-22T02:01:16.588Z,43.50
2019-03-22T02:03:44.958Z,41.37
2019-03-22T02:06:13.286Z,42.00
2019-03-22T02:08:41.589Z,42.53
2019-03-22T02:11:10.053Z,44.17
2019-03-22T02:13:38.359Z,42.40
2019-03-22T02:16:06.614Z,44.40
2019-03-22T02:18:35.039Z,40.37
2019-03-22T02:21:03.323Z,45.30
2019-03-22T02:23:31.575Z,49.07
2019-03-22T02:25:59.925Z,42.43
2019-03-22T02:28:28.177Z,46.53
2019-03-22T02:30:56.482Z,46.13
2019-03-22T02:33:24.788Z,46.60
2019-03-22T02:35:53.139Z,47.17
2019-03-22T02:38:21.444Z,47.70
2019-03-22T02:40:49.709Z,45.90
2019-03-22T02:43:17.989Z,45.70
2019-03-22T02:45:46.337Z,46.00
2019-03-22T02:48:14.597Z,46.53
2019-03-22T02:50:42.913Z,43.00
2019-03-22T02:53:12.123Z,46.50
2019-03-22T02:55:40.432Z,43.57
2019-03-22T02:58:20.336Z,42.40
2019-03-22T03:00:38.909Z,45.60
2019-03-22T03:03:07.163Z,41.53
2019-03-22T03:05:35.599Z,43.63
2019-03-22T03:08:03.854Z,46.23
2019-03-22T03:10:32.181Z,46.30
2019-03-22T03:13:00.479Z,43.77
2019-03-22T03:15:28.782Z,45.40
2019-03-22T03:17:57.024Z,46.83
2019-03-22T03:20:25.333Z,45.40
2019-03-22T03:22:53.601Z,43.27
2019-03-22T03:25:21.987Z,45.13
2019-03-22T03:27:50.332Z,45.23
2019-03-22T03:30:22.128Z,42.60
2019-03-22T03:32:50.453Z,43.27
2019-03-22T03:35:18.914Z,47.37
2019-03-22T03:37:47.185Z,48.23
2019-03-22T03:40:15.716Z,46.13
2019-03-22T03:42:44.035Z,46.90
2019-03-22T03:45:35.439Z,48.27
2019-03-22T03:48:10.457Z,45.33
2019-03-22T03:50:38.843Z,46.70
2019-03-22T03:53:07.337Z,49.33
2019-03-22T03:55:35.632Z,45.27
2019-03-22T03:58:04.103Z,44.97
2019-03-22T04:00:32.348Z,46.40
2019-03-22T04:03:00.801Z,46.50
2019-03-22T04:05:29.098Z,46.20
2019-03-22T04:07:57.351Z,43.83
2019-03-22T04:10:26.137Z,45.57
2019-03-22T04:12:54.438Z,46.20
2019-03-22T04:15:22.774Z,43.53
2019-03-22T04:17:51.052Z,43.87
2019-03-22T04:20:19.402Z,40.80
2019-03-22T04:22:47.678Z,44.17
2019-03-22T04:25:15.990Z,45.47
2019-03-22T04:27:44.332Z,45.97
2019-03-22T04:30:12.634Z,43.77
2019-03-22T04:32:41.714Z,41.33
2019-03-22T04:35:10.323Z,45.33
2019-03-22T04:37:38.633Z,47.37
2019-03-22T04:40:10.153Z,46.47
2019-03-22T04:42:38.475Z,45.47
2019-03-22T04:45:07.023Z,45.17
2019-03-22T04:47:35.271Z,43.63
2019-03-22T04:50:03.802Z,46.43
2019-03-22T04:52:32.117Z,44.97
2019-03-22T04:55:00.537Z,46.50
2019-03-22T04:57:28.879Z,46.57
2019-03-22T04:59:57.537Z,46.47
2019-03-22T05:02:25.950Z,50.80
2019-03-22T05:04:54.203Z,45.90
2019-03-22T05:07:22.607Z,50.17
2019-03-22T05:09:53.685Z,48.40
2019-03-22T05:12:22.717Z,48.50
2019-03-22T05:14:51.082Z,52.93
2019-03-22T05:17:19.381Z,48.07
2019-03-22T05:19:50.859Z,47.43
2019-03-22T05:22:19.186Z,48.57
2019-03-22T05:24:47.475Z,44.70
2019-03-22T05:27:15.978Z,47.90
2019-03-22T05:29:44.223Z,49.00
2019-03-22T05:32:14.250Z,43.70
2019-03-22T05:34:42.629Z,44.30
2019-03-22T05:37:10.935Z,47.83
2019-03-22T05:39:39.186Z,46.73
2019-03-22T05:42:07.648Z,43.87
2019-03-22T05:44:35.904Z,46.13
2019-03-22T05:47:04.212Z,47.43
2019-03-22T05:49:33.182Z,48.97
2019-03-22T05:52:01.432Z,50.70
2019-03-22T05:54:29.731Z,46.47
2019-03-22T05:56:58.829Z,51.93
2019-03-22T05:59:27.075Z,50.83
2019-03-22T06:01:55.477Z,50.03
2019-03-22T06:04:23.827Z,49.20
2019-03-22T06:06:52.184Z,49.63
2019-03-22T06:09:20.456Z,50.10
2019-03-22T06:11:48.770Z,46.83
2019-03-22T06:14:17.040Z,49.47
2019-03-22T06:16:45.298Z,51.60
2019-03-22T06:19:13.774Z,51.40
2019-03-22T06:21:42.034Z,50.10
2019-03-22T06:24:10.955Z,50.03
2019-03-22T06:26:39.343Z,47.70
2019-03-22T06:29:07.668Z,48.27
2019-03-22T06:31:35.940Z,46.63
2019-03-22T06:34:04.230Z,45.00
2019-03-22T06:36:32.526Z,48.67
2019-03-22T06:39:00.997Z,47.80
2019-03-22T06:41:29.283Z,49.20
2019-03-22T06:43:57.788Z,50.33
2019-03-22T06:46:26.085Z,47.90
2019-03-22T06:48:54.341Z,46.07
2019-03-22T06:51:22.594Z,46.10
2019-03-22T06:53:50.897Z,45.67
2019-03-22T06:56:19.301Z,50.30
2019-03-22T06:58:47.582Z,48.70
2019-03-22T07:01:15.963Z,48.70
2019-03-22T07:03:44.283Z,48.47
2019-03-22T07:06:12.595Z,48.63
2019-03-22T07:08:40.966Z,47.33
2019-03-22T07:11:10.149Z,49.70
2019-03-22T07:13:38.552Z,48.90
2019-03-22T07:16:07.490Z,46.37
2019-03-22T07:18:35.967Z,47.60
2019-03-22T07:21:04.401Z,48.97
2019-03-22T07:23:32.642Z,49.90
2019-03-22T07:26:01.063Z,52.70
2019-03-22T07:28:29.449Z,51.53
2019-03-22T07:30:57.701Z,49.17
2019-03-22T07:33:26.087Z,51.27
2019-03-22T07:35:54.382Z,50.50
2019-03-22T07:38:23.103Z,50.17
2019-03-22T07:40:51.389Z,51.70
2019-03-22T07:43:19.639Z,53.80
2019-03-22T07:45:49.333Z,54.43
2019-03-22T07:48:17.625Z,51.47
2019-03-22T07:50:45.925Z,51.47
2019-03-22T07:53:14.371Z,55.63
2019-03-22T07:55:42.694Z,54.60
2019-03-22T07:58:11.128Z,54.27
2019-03-22T08:00:39.414Z,54.37
2019-03-22T08:03:07.806Z,52.80
2019-03-22T08:05:36.138Z,54.23
2019-03-22T08:08:04.552Z,52.67
2019-03-22T08:10:32.892Z,55.93
2019-03-22T08:13:01.325Z,56.60
2019-03-22T08:15:31.081Z,54.63
2019-03-22T08:17:59.955Z,55.80
2019-03-22T08:20:28.336Z,55.97
2019-03-22T08:22:56.678Z,52.13
2019-03-22T08:25:25.039Z,55.20
2019-03-22T08:27:53.548Z,55.93
2019-03-22T08:30:21.890Z,53.90
2019-03-22T08:32:50.575Z,56.80
2019-03-22T08:35:19.106Z,55.17
2019-03-22T08:37:52.460Z,56.33
2019-03-22T08:40:17.651Z,50.87
2019-03-22T08:42:46.750Z,53.53
2019-03-22T08:45:15.071Z,54.30
2019-03-22T08:47:43.387Z,55.67
2019-03-22T08:50:11.767Z,55.20
2019-03-22T08:52:40.191Z,54.07
2019-03-22T08:55:08.798Z,52.60
2019-03-22T08:57:37.125Z,52.50
2019-03-22T09:00:10.886Z,55.20
2019-03-22T09:02:39.348Z,53.13
2019-03-22T09:05:07.743Z,53.87
2019-03-22T09:07:36.024Z,54.57
2019-03-22T09:10:10.172Z,52.90
2019-03-22T09:12:38.454Z,57.67
2019-03-22T09:15:07.837Z,51.77
2019-03-22T09:17:36.143Z,53.33
2019-03-22T09:20:07.490Z,54.80
2019-03-22T09:22:35.781Z,53.77
2019-03-22T09:25:05.549Z,54.60
2019-03-22T09:27:36.463Z,52.80
2019-03-22T09:30:05.892Z,52.13
2019-03-22T09:32:34.233Z,53.40
2019-03-22T09:35:02.483Z,55.40
2019-03-22T09:37:31.727Z,51.90
2019-03-22T09:40:00.465Z,51.90
2019-03-22T09:42:28.851Z,53.87
2019-03-22T09:44:57.189Z,53.97
2019-03-22T09:47:25.540Z,54.10
2019-03-22T09:49:53.806Z,54.17
2019-03-22T09:52:22.118Z,54.00
2019-03-22T09:54:50.484Z,53.60
2019-03-22T09:57:18.850Z,50.27
2019-03-22T09:59:47.554Z,52.73
2019-03-22T10:02:15.877Z,51.20
2019-03-22T10:04:44.244Z,52.33
2019-03-22T10:07:12.654Z,50.10
2019-03-22T10:09:41.004Z,49.40
2019-03-22T10:12:09.367Z,46.83
2019-03-22T10:14:37.712Z,47.40
2019-03-22T10:17:06.259Z,46.17
2019-03-22T10:19:34.835Z,47.40
2019-03-22T10:22:03.105Z,48.33
2019-03-22T10:24:31.362Z,45.60
2019-03-22T10:26:59.638Z,45.57
2019-03-22T10:29:27.956Z,42.63
2019-03-22T10:31:56.326Z,47.57
2019-03-22T10:34:24.597Z,44.03
2019-03-22T10:36:52.992Z,43.00
2019-03-22T10:39:21.244Z,42.93
2019-03-22T10:41:49.533Z,45.40
2019-03-22T10:44:17.839Z,46.13
2019-03-22T10:46:46.124Z,44.07
2019-03-22T10:49:14.384Z,46.70
2019-03-22T10:51:56.032Z,44.03
2019-03-22T10:54:13.414Z,43.70
2019-03-22T10:56:41.766Z,45.23
2019-03-22T10:59:10.047Z,43.93
2019-03-22T11:01:51.933Z,45.20
2019-03-22T11:06:36.712Z,43.73
2019-03-22T11:09:07.403Z,43.30
2019-03-22T11:11:35.708Z,42.73
2019-03-22T11:14:03.997Z,44.50
2019-03-22T11:16:32.241Z,44.90
2019-03-22T11:19:00.520Z,44.80
2019-03-22T11:21:28.771Z,43.07
2019-03-22T11:23:57.041Z,44.43
2019-03-22T11:26:25.294Z,42.57
2019-03-22T11:28:53.829Z,43.87
2019-03-22T11:31:28.315Z,41.30
2019-03-22T11:33:52.059Z,45.23
2019-03-22T11:36:20.432Z,36.40
2019-03-22T11:38:48.683Z,42.20
2019-03-22T11:41:17.096Z,39.60
2019-03-22T11:43:45.365Z,41.53
2019-03-22T11:46:13.610Z,42.13
2019-03-22T11:48:42.769Z,39.10
2019-03-22T11:51:11.018Z,36.07
2019-03-22T11:53:39.294Z,34.10
2019-03-22T11:56:09.417Z,34.83
2019-03-22T11:58:37.580Z,33.20
2019-03-22T12:01:05.827Z,30.43
2019-03-22T12:03:34.101Z,32.87
2019-03-22T12:06:02.384Z,32.60
2019-03-22T12:08:30.702Z,30.03
2019-03-22T12:10:59.003Z,25.00
2019-03-22T12:13:27.252Z,26.13
2019-03-22T12:15:55.565Z,23.93
2019-03-22T12:18:24.588Z,22.27
2019-03-22T12:20:53.030Z,20.27
2019-03-22T12:23:21.406Z,22.33
2019-03-22T12:25:49.640Z,23.10
2019-03-22T12:28:17.958Z,24.10
2019-03-22T12:30:46.255Z,22.03
2019-03-22T12:33:14.522Z,24.70
2019-03-22T12:35:42.856Z,22.97
2019-03-22T12:38:11.125Z,19.47
2019-03-22T12:40:39.408Z,19.10
2019-03-22T12:43:07.723Z,19.90
2019-03-22T12:45:35.968Z,20.47
2019-03-22T12:48:04.387Z,22.30
2019-03-22T12:50:36.341Z,22.13
2019-03-22T12:53:04.654Z,21.20
2019-03-22T12:55:33.004Z,24.00
2019-03-22T12:58:01.262Z,21.70
2019-03-22T13:00:29.540Z,23.27
2019-03-22T13:02:57.875Z,20.83
2019-03-22T13:05:26.123Z,22.10
2019-03-22T13:07:54.367Z,18.60
2019-03-22T13:10:25.872Z,19.40
2019-03-22T13:12:54.151Z,20.17
2019-03-22T13:15:22.447Z,20.80
2019-03-22T13:17:50.709Z,17.10
2019-03-22T13:20:18.957Z,18.43
2019-03-22T13:22:47.335Z,18.80
2019-03-22T13:25:21.083Z,17.93
2019-03-22T13:27:48.925Z,16.30
2019-03-22T13:30:35.524Z,16.93
2019-03-22T13:33:04.273Z,15.73
2019-03-22T13:35:32.654Z,16.00
2019-03-22T13:38:00.911Z,16.83
2019-03-22T13:40:29.458Z,15.97
2019-03-22T13:42:57.712Z,16.23
2019-03-22T13:45:26.011Z,17.67
2019-03-22T13:47:54.306Z,16.90
2019-03-22T13:50:22.606Z,19.50
2019-03-22T13:52:50.909Z,18.63
2019-03-22T13:55:19.164Z,17.40
2019-03-22T13:57:47.454Z,17.53
2019-03-22T14:00:16.957Z,18.10
2019-03-22T14:02:45.882Z,16.50
2019-03-22T14:05:14.292Z,15.47
2019-03-22T14:07:42.553Z,16.60
2019-03-22T14:10:31.456Z,17.63
2019-03-22T14:13:03.401Z,15.97
2019-03-22T14:15:31.656Z,17.83
2019-03-22T14:18:00.144Z,16.53
2019-03-22T14:20:28.507Z,18.30
2019-03-22T14:22:56.819Z,17.17
2019-03-22T14:25:25.348Z,17.03
2019-03-22T14:27:54.203Z,15.90
2019-03-22T14:30:22.448Z,16.73
2019-03-22T14:32:50.744Z,14.77
2019-03-22T14:35:19.067Z,16.80
2019-03-22T14:37:47.452Z,17.00
2019-03-22T14:40:15.977Z,17.33
2019-03-22T14:42:44.331Z,17.27
2019-03-22T14:45:13.345Z,16.40
2019-03-22T14:47:41.604Z,17.60
2019-03-22T14:50:10.096Z,15.77
2019-03-22T14:52:38.339Z,14.93
2019-03-22T14:55:06.667Z,16.17
2019-03-22T14:57:35.288Z,15.53
2019-03-22T15:00:05.691Z,14.73
2019-03-22T15:02:33.981Z,15.80
2019-03-22T15:05:02.227Z,16.53
2019-03-22T15:07:30.619Z,15.83
2019-03-22T15:09:58.884Z,16.63
2019-03-22T15:12:27.135Z,14.60
2019-03-22T15:15:02.865Z,15.77
2019-03-22T15:17:32.756Z,16.00
2019-03-22T15:20:18.747Z,16.30
2019-03-22T15:23:00.561Z,15.43
2019-03-22T15:25:36.302Z,21.00
2019-03-22T15:28:24.333Z,16.80
2019-03-22T15:31:06.823Z,15.13
2019-03-22T15:33:36.769Z,16.53
2019-03-22T15:36:22.595Z,15.07
2019-03-22T15:38:55.449Z,14.50
2019-03-22T15:41:23.761Z,14.77
2019-03-22T15:43:52.195Z,13.93
2019-03-22T15:46:20.554Z,13.50
2019-03-22T15:48:48.826Z,13.63
2019-03-22T15:51:17.230Z,13.27
2019-03-22T15:53:45.531Z,12.70
2019-03-22T15:56:15.735Z,12.93
2019-03-22T15:58:43.937Z,12.70
2019-03-22T16:01:12.197Z,11.50
2019-03-22T16:03:44.338Z,11.37
2019-03-22T16:06:10.448Z,11.00
2019-03-22T16:08:38.846Z,11.83
2019-03-22T16:11:07.961Z,12.30
2019-03-22T16:13:36.218Z,10.30
2019-03-22T16:16:04.487Z,9.93
2019-03-22T16:18:32.739Z,10.93
2019-03-22T16:21:01.017Z,9.53
2019-03-22T16:23:29.378Z,9.00
2019-03-22T16:25:57.751Z,10.03
2019-03-22T16:28:26.055Z,10.47
2019-03-22T16:30:54.293Z,11.17
2019-03-22T16:33:23.066Z,10.10
2019-03-22T16:35:51.309Z,9.63
2019-03-22T16:38:19.587Z,10.97
2019-03-22T16:40:47.876Z,11.10
2019-03-22T16:43:16.177Z,10.43
2019-03-22T16:45:44.562Z,10.37
2019-03-22T16:48:12.824Z,8.37
2019-03-22T16:50:41.091Z,8.13
2019-03-22T16:53:09.406Z,9.57
2019-03-22T16:55:37.702Z,9.90
2019-03-22T16:58:05.954Z,10.07
2019-03-22T17:00:34.250Z,10.37
2019-03-22T17:03:02.905Z,9.00
2019-03-22T17:05:31.177Z,10.57
2019-03-22T17:07:59.421Z,9.90
2019-03-22T17:10:27.706Z,10.20
2019-03-22T17:12:55.972Z,8.93
2019-03-22T17:15:24.322Z,10.60
2019-03-22T17:17:52.574Z,8.77
2019-03-22T17:20:20.855Z,9.10
2019-03-22T17:22:49.101Z,9.07
2019-03-22T17:25:17.440Z,9.13
2019-03-22T17:27:46.457Z,9.67
2019-03-22T17:30:14.785Z,9.67
2019-03-22T17:32:43.059Z,9.50
2019-03-22T17:35:11.315Z,9.57
2019-03-22T17:37:39.603Z,9.50
2019-03-22T17:40:08.144Z,7.60
2019-03-22T17:42:38.076Z,9.03
2019-03-22T17:45:08.425Z,9.43
2019-03-22T17:47:39.399Z,8.87
2019-03-22T17:50:08.934Z,8.97
2019-03-22T17:52:37.179Z,8.80
2019-03-22T17:55:09.395Z,9.37
2019-03-22T17:57:37.667Z,8.13
2019-03-22T18:00:21.169Z,8.60
2019-03-22T18:02:49.449Z,11.50
2019-03-22T18:05:17.712Z,10.70
2019-03-22T18:07:47.190Z,11.43
2019-03-22T18:10:15.464Z,11.53
2019-03-22T18:12:43.713Z,10.67
2019-03-22T18:15:12.933Z,10.73
2019-03-22T18:17:41.292Z,11.07
2019-03-22T18:20:14.682Z,11.43
2019-03-22T18:22:42.955Z,11.23
2019-03-22T18:25:11.736Z,10.30
2019-03-22T18:27:40.049Z,10.90
2019-03-22T18:30:15.817Z,10.60
2019-03-22T18:32:44.102Z,13.83
2019-03-22T18:35:12.404Z,13.30
2019-03-22T18:37:40.649Z,12.70
2019-03-22T18:40:15.227Z,12.13
2019-03-22T18:42:43.695Z,14.50
2019-03-22T18:45:13.154Z,14.67
2019-03-22T18:47:42.273Z,12.53
2019-03-22T18:50:11.150Z,11.80
2019-03-22T18:52:39.427Z,14.50
2019-03-22T18:55:08.111Z,14.03
2019-03-22T18:57:36.468Z,15.17
2019-03-22T19:00:16.105Z,13.37
2019-03-22T19:02:44.434Z,12.63
2019-03-22T19:05:13.492Z,13.67
2019-03-22T19:07:41.749Z,13.67
2019-03-22T19:10:13.294Z,13.43
2019-03-22T19:12:41.600Z,13.50
2019-03-22T19:15:12.632Z,13.67
2019-03-22T19:17:40.962Z,14.03
2019-03-22T19:20:11.484Z,13.53
2019-03-22T19:22:39.931Z,12.50
2019-03-22T19:25:09.251Z,12.70
2019-03-22T19:27:37.536Z,14.80
2019-03-22T19:30:14.058Z,13.63
2019-03-22T19:32:42.320Z,14.53
2019-03-22T19:35:10.561Z,14.00
2019-03-22T19:37:38.937Z,14.10
2019-03-22T19:40:09.717Z,14.23
2019-03-22T19:42:37.987Z,15.90
2019-03-22T19:45:08.015Z,13.53
2019-03-22T19:47:36.265Z,13.80
2019-03-22T19:50:07.157Z,13.10
2019-03-22T19:52:35.555Z,14.90
2019-03-22T19:55:06.334Z,13.00
2019-03-22T19:57:34.636Z,12.97
2019-03-22T20:00:03.246Z,13.80
2019-03-22T20:02:31.585Z,14.00
2019-03-22T20:05:04.640Z,14.03
2019-03-22T20:07:29.874Z,13.97
2019-03-22T20:09:58.117Z,14.43
2019-03-22T20:12:26.459Z,14.93
2019-03-22T20:14:54.713Z,15.37
2019-03-22T20:17:23.011Z,16.07
2019-03-22T20:19:51.262Z,16.87
2019-03-22T20:22:19.512Z,16.93
2019-03-22T20:24:47.947Z,15.40
2019-03-22T20:27:16.242Z,16.97
2019-03-22T20:29:44.480Z,18.90
2019-03-22T20:32:12.762Z,16.80
2019-03-22T20:34:41.170Z,17.30
2019-03-22T20:37:09.505Z,16.17
2019-03-22T20:39:37.755Z,17.87
2019-03-22T20:42:06.136Z,18.17
2019-03-22T20:44:34.429Z,15.60
2019-03-22T20:47:02.689Z,17.00
2019-03-22T20:49:30.979Z,15.70
2019-03-22T20:51:59.251Z,16.67
2019-03-22T20:54:27.541Z,18.83
2019-03-22T20:56:55.832Z,16.20
2019-03-22T20:59:24.118Z,17.33
2019-03-22T21:01:52.510Z,18.90
2019-03-22T21:04:20.892Z,19.37
2019-03-22T21:06:49.255Z,18.47
2019-03-22T21:09:17.621Z,18.10
2019-03-22T21:11:45.955Z,19.10
2019-03-22T21:14:14.230Z,18.87
2019-03-22T21:16:42.510Z,19.80
2019-03-22T21:19:10.810Z,19.93
2019-03-22T21:21:39.085Z,19.60
2019-03-22T21:24:08.853Z,21.03
2019-03-22T21:26:37.426Z,24.10
2019-03-22T21:29:05.724Z,26.97
2019-03-22T21:31:34.026Z,27.40
2019-03-22T21:34:02.383Z,27.03
2019-03-22T21:36:30.640Z,27.83
2019-03-22T21:38:58.947Z,27.87
2019-03-22T21:41:27.192Z,28.33
2019-03-22T21:43:55.438Z,32.80
2019-03-22T21:46:23.757Z,30.03
2019-03-22T21:48:52.025Z,30.27
2019-03-22T21:51:20.320Z,28.87
2019-03-22T21:53:48.631Z,29.37
2019-03-22T21:56:17.039Z,30.67
2019-03-22T21:58:45.348Z,30.13
2019-03-22T22:01:13.584Z,27.07
2019-03-22T22:03:41.865Z,29.53
2019-03-22T22:06:10.125Z,30.90
2019-03-22T22:08:38.434Z,32.40
2019-03-22T22:11:06.759Z,34.23
2019-03-22T22:13:35.060Z,34.80
2019-03-22T22:16:03.374Z,34.00
2019-03-22T22:18:31.676Z,34.67
2019-03-22T22:20:59.919Z,38.17
2019-03-22T22:23:28.256Z,37.20
2019-03-22T22:25:56.682Z,36.03
2019-03-22T22:28:24.984Z,37.20
2019-03-22T22:30:53.443Z,40.17
2019-03-22T22:33:21.794Z,41.30
2019-03-22T22:35:58.314Z,37.37
2019-03-22T22:38:20.122Z,39.03
2019-03-22T22:40:48.376Z,38.37
2019-03-22T22:43:16.698Z,39.30
2019-03-22T22:45:45.028Z,33.67
2019-03-22T22:48:13.315Z,30.67
2019-03-22T22:50:41.592Z,28.20
2019-03-22T22:53:09.879Z,28.20
2019-03-22T22:55:38.513Z,27.83
2019-03-22T22:58:06.757Z,28.60
2019-03-22T23:00:35.322Z,29.10
2019-03-22T23:03:03.684Z,30.30
2019-03-22T23:05:32.502Z,29.30
2019-03-22T23:08:03.207Z,27.67
2019-03-22T23:10:31.497Z,31.43
2019-03-22T23:12:59.875Z,30.43
2019-03-22T23:15:28.133Z,33.20
2019-03-22T23:17:56.480Z,32.87
2019-03-22T23:20:24.799Z,32.07
2019-03-22T23:22:53.044Z,34.10
2019-03-22T23:25:21.378Z,36.60
2019-03-22T23:27:49.751Z,35.90
2019-03-22T23:30:18.396Z,38.10
2019-03-22T23:32:46.689Z,39.10
2019-03-22T23:35:14.970Z,37.53
2019-03-22T23:37:43.249Z,41.33
2019-03-22T23:40:11.511Z,42.50
2019-03-22T23:42:40.130Z,41.40
2019-03-22T23:45:10.696Z,42.43
2019-03-22T23:47:38.993Z,40.10
2019-03-22T23:50:07.524Z,41.23
2019-03-22T23:52:35.776Z,41.80
2019-03-22T23:55:05.755Z,43.37
2019-03-22T23:57:34.005Z,41.07
